KMHT/MHT METAR and TAF weather

Enter ICAO airport designator
Station Type Date Time Source
KMHT METAR 2021/08/02 02:53 UTC NOAA

KMHT 020253Z 17009KT 10SM BKN042 BKN060 OVC080 21/14 A2984 RMK AO2 SLP113 60000 T02060144 50001


Station Type Date Time Source
KMHT Decoded METAR 2021/08/02 02:53 UTC NOAA

MANCHESTER AIRPORT, NH, United States (KMHT) 42-56N 071-26W 81M
Aug 01, 2021 - 10:53 PM EDT / 2021.08.02 0253 UTC
Wind: from the S (170 degrees) at 10 MPH (9 KT):0
Visibility: 10 mile(s):0
Sky conditions: overcast
Temperature: 69.1 F (20.6 C)
Dew Point: 57.9 F (14.4 C)
Relative Humidity: 67%
Pressure (altimeter): 29.84 in. Hg (1010 hPa)
Pressure tendency: 0.00 inches (0.1 hPa) higher than three hours ago
ob: KMHT 020253Z 17009KT 10SM BKN042 BKN060 OVC080 21/14 A2984 RMK AO2 SLP113 60000 T02060144 50001
cycle: 3

Station Type Date Time Source
KMHT TAF 2021/08/01 18:39 UTC NOAA

TAF KMHT 011737Z 0118/0218 17005KT P6SM BKN070
FM020200 16004KT 4SM -SHRA OVC050
FM020800 00000KT 5SM BR OVC025
FM021300 32006KT P6SM BKN025

Example: see airport list